createdAt,value
2019-06-10T00:02:22.401Z,23.50
2019-06-10T00:04:51.394Z,23.50
2019-06-10T00:07:21.617Z,23.50
2019-06-10T00:09:52.454Z,23.60
2019-06-10T00:12:21.450Z,23.60
2019-06-10T00:14:51.014Z,23.60
2019-06-10T00:17:21.402Z,23.60
2019-06-10T00:19:51.140Z,23.60
2019-06-10T00:22:21.589Z,23.60
2019-06-10T00:24:52.171Z,23.60
2019-06-10T00:27:21.675Z,23.60
2019-06-10T00:29:52.384Z,23.60
2019-06-10T00:32:22.585Z,23.60
2019-06-10T00:34:51.703Z,23.70
2019-06-10T00:37:21.329Z,23.70
2019-06-10T00:39:51.738Z,23.70
2019-06-10T00:42:21.402Z,23.70
2019-06-10T00:44:51.261Z,23.70
2019-06-10T00:47:21.172Z,23.70
2019-06-10T00:49:51.487Z,23.80
2019-06-10T00:52:21.314Z,23.80
2019-06-10T00:54:51.861Z,23.80
2019-06-10T00:57:21.871Z,23.80
2019-06-10T00:59:51.369Z,23.80
2019-06-10T01:02:21.356Z,23.80
2019-06-10T01:04:51.365Z,23.80
2019-06-10T01:07:21.788Z,23.80
2019-06-10T01:09:52.260Z,23.80
2019-06-10T01:12:21.277Z,23.80
2019-06-10T01:14:51.666Z,23.80
2019-06-10T01:17:21.338Z,23.70
2019-06-10T01:19:51.000Z,23.70
2019-06-10T01:22:21.296Z,23.70
2019-06-10T01:24:51.740Z,23.70
2019-06-10T01:27:21.186Z,23.70
2019-06-10T01:29:51.098Z,23.60
2019-06-10T01:32:21.728Z,23.60
2019-06-10T01:34:51.090Z,23.60
2019-06-10T01:37:21.773Z,23.60
2019-06-10T01:39:51.495Z,23.50
2019-06-10T01:42:21.592Z,23.50
2019-06-10T01:44:51.158Z,23.50
2019-06-10T01:47:21.557Z,23.60
2019-06-10T01:49:51.665Z,23.60
2019-06-10T01:52:21.295Z,23.60
2019-06-10T01:54:51.509Z,23.60
2019-06-10T01:57:22.019Z,23.60
2019-06-10T01:59:52.184Z,23.60
2019-06-10T02:02:23.951Z,23.60
2019-06-10T02:04:53.242Z,23.60
2019-06-10T02:07:22.988Z,23.60
2019-06-10T02:09:52.354Z,23.60
2019-06-10T02:12:24.181Z,23.60
2019-06-10T02:14:57.714Z,23.60
2019-06-10T02:17:27.014Z,23.60
2019-06-10T02:19:56.006Z,23.60
2019-06-10T02:22:25.307Z,23.60
2019-06-10T02:24:54.624Z,23.60
2019-06-10T02:27:23.606Z,23.60
2019-06-10T02:29:52.901Z,23.60
2019-06-10T02:32:31.341Z,23.60
2019-06-10T02:35:03.427Z,23.60
2019-06-10T02:37:31.299Z,23.70
2019-06-10T02:39:54.317Z,23.70
2019-06-10T02:42:30.389Z,23.70
2019-06-10T02:44:55.880Z,23.70
2019-06-10T02:47:36.189Z,23.70
2019-06-10T02:50:07.090Z,23.70
2019-06-10T02:52:37.118Z,23.70
2019-06-10T02:55:04.331Z,23.70
2019-06-10T02:57:39.465Z,23.70
2019-06-10T03:00:06.631Z,23.80
2019-06-10T03:02:36.432Z,23.80
2019-06-10T03:05:06.163Z,23.80
2019-06-10T03:07:35.961Z,23.80
2019-06-10T03:10:09.666Z,23.70
2019-06-10T03:12:39.069Z,23.80
2019-06-10T03:15:09.190Z,23.80
2019-06-10T03:17:38.188Z,23.80
2019-06-10T03:20:07.250Z,23.70
2019-06-10T03:22:36.481Z,23.80
2019-06-10T03:25:07.410Z,23.80
2019-06-10T03:27:36.300Z,23.70
2019-06-10T03:30:15.347Z,23.80
2019-06-10T03:32:42.732Z,23.80
2019-06-10T03:35:07.887Z,23.80
2019-06-10T03:37:37.395Z,23.80
2019-06-10T03:40:07.102Z,23.80
2019-06-10T03:42:36.095Z,23.80
2019-06-10T03:45:08.485Z,23.80
2019-06-10T03:47:37.767Z,23.80
2019-06-10T03:50:07.989Z,23.80
2019-06-10T03:52:36.983Z,23.80
2019-06-10T03:55:08.740Z,23.80
2019-06-10T03:57:37.739Z,23.80
2019-06-10T04:00:11.439Z,23.80
2019-06-10T04:02:39.713Z,23.80
2019-06-10T04:05:08.808Z,23.80
2019-06-10T04:07:38.315Z,23.70
2019-06-10T04:10:07.923Z,23.80
2019-06-10T04:12:36.915Z,23.80
2019-06-10T04:15:06.600Z,23.80
2019-06-10T04:17:36.437Z,23.80
2019-06-10T04:20:11.492Z,23.80
2019-06-10T04:22:36.883Z,23.80
2019-06-10T04:25:07.103Z,23.80
2019-06-10T04:27:36.096Z,23.80
2019-06-10T04:30:09.392Z,23.80
2019-06-10T04:32:38.384Z,23.80
2019-06-10T04:35:07.376Z,23.80
2019-06-10T04:37:36.369Z,23.80
2019-06-10T04:40:07.515Z,23.80
2019-06-10T04:42:36.509Z,23.80
2019-06-10T04:45:07.645Z,23.80
2019-06-10T04:47:36.952Z,23.80
2019-06-10T04:50:20.556Z,23.80
2019-06-10T04:52:37.761Z,23.80
2019-06-10T04:55:06.694Z,23.80
2019-06-10T04:57:36.611Z,23.90
2019-06-10T05:00:11.379Z,23.90
2019-06-10T05:02:37.058Z,23.90
2019-06-10T05:05:06.047Z,23.80
2019-06-10T05:07:37.049Z,23.80
2019-06-10T05:10:09.255Z,24.00
2019-06-10T05:12:38.253Z,24.10
2019-06-10T05:15:07.245Z,24.20
2019-06-10T05:17:36.236Z,24.20
2019-06-10T05:20:08.919Z,24.10
2019-06-10T05:22:38.222Z,24.10
2019-06-10T05:25:07.216Z,24.00
2019-06-10T05:27:36.211Z,24.00
2019-06-10T05:30:07.968Z,24.00
2019-06-10T05:32:37.884Z,24.00
2019-06-10T05:35:06.879Z,24.00
2019-06-10T05:37:36.474Z,24.00
2019-06-10T05:40:07.411Z,24.00
2019-06-10T05:42:36.312Z,24.10
2019-06-10T05:45:07.448Z,24.20
2019-06-10T05:47:36.464Z,24.20
2019-06-10T05:50:07.277Z,24.10
2019-06-10T05:52:37.500Z,24.20
2019-06-10T05:55:07.414Z,24.10
2019-06-10T05:57:36.406Z,24.10
2019-06-10T06:00:13.874Z,24.10
2019-06-10T06:02:43.117Z,24.10
2019-06-10T06:05:12.809Z,24.10
2019-06-10T06:07:42.302Z,24.10
2019-06-10T06:10:13.022Z,24.10
2019-06-10T06:12:42.574Z,24.10
2019-06-10T06:15:13.089Z,24.10
2019-06-10T06:17:43.186Z,24.10
2019-06-10T06:20:13.303Z,24.10
2019-06-10T06:22:52.124Z,24.10
2019-06-10T06:25:23.978Z,24.10
2019-06-10T06:27:52.453Z,24.10
2019-06-10T06:30:23.118Z,24.10
2019-06-10T06:32:53.280Z,24.10
2019-06-10T06:35:22.702Z,24.10
2019-06-10T06:37:53.949Z,24.10
2019-06-10T06:40:23.072Z,24.10
2019-06-10T06:42:52.598Z,24.10
2019-06-10T06:45:22.184Z,24.10
2019-06-10T06:47:52.766Z,24.10
2019-06-10T06:50:25.405Z,24.20
2019-06-10T06:53:20.091Z,24.20
2019-06-10T06:55:25.028Z,24.20
2019-06-10T06:57:54.122Z,24.20
2019-06-10T07:00:51.027Z,24.10
2019-06-10T07:03:04.089Z,24.20
2019-06-10T07:05:37.193Z,24.20
2019-06-10T07:08:06.992Z,24.20
2019-06-10T07:10:37.315Z,24.20
2019-06-10T07:13:07.332Z,24.20
2019-06-10T07:15:46.524Z,24.20
2019-06-10T07:18:13.044Z,24.20
2019-06-10T07:20:45.612Z,24.20
2019-06-10T07:23:12.990Z,24.20
2019-06-10T07:25:46.590Z,24.20
2019-06-10T07:28:12.547Z,24.20
2019-06-10T07:30:48.148Z,24.20
2019-06-10T07:33:12.494Z,24.20
2019-06-10T07:35:44.106Z,24.20
2019-06-10T07:38:13.250Z,24.20
2019-06-10T07:40:45.459Z,24.20
2019-06-10T07:43:12.870Z,24.30
2019-06-10T07:45:45.858Z,24.30
2019-06-10T07:48:14.435Z,24.20
2019-06-10T07:50:45.386Z,24.30
2019-06-10T07:53:13.958Z,24.20
2019-06-10T07:55:46.252Z,24.30
2019-06-10T07:58:13.478Z,24.30
2019-06-10T08:00:46.566Z,24.30
2019-06-10T08:03:12.937Z,24.30
2019-06-10T08:05:44.386Z,24.30
2019-06-10T08:08:12.985Z,24.30
2019-06-10T08:10:49.606Z,24.30
2019-06-10T08:13:18.497Z,24.30
2019-06-10T08:15:48.408Z,24.30
2019-06-10T08:18:17.406Z,24.40
2019-06-10T08:20:47.475Z,24.40
2019-06-10T08:23:18.165Z,24.40
2019-06-10T08:25:53.322Z,24.40
2019-06-10T08:28:18.394Z,24.40
2019-06-10T08:30:48.515Z,24.40
2019-06-10T08:33:17.919Z,24.40
2019-06-10T08:35:56.080Z,24.40
2019-06-10T08:38:18.565Z,24.50
2019-06-10T08:40:48.521Z,24.50
2019-06-10T08:43:17.780Z,24.50
2019-06-10T08:45:47.519Z,24.50
2019-06-10T08:48:17.303Z,24.50
2019-06-10T08:50:48.738Z,24.50
2019-06-10T08:53:18.256Z,24.50
2019-06-10T08:55:49.497Z,24.50
2019-06-10T08:58:17.578Z,24.50
2019-06-10T09:00:49.290Z,24.50
2019-06-10T09:03:17.201Z,24.50
2019-06-10T09:05:49.345Z,24.50
2019-06-10T09:08:18.461Z,24.50
2019-06-10T09:10:49.895Z,24.50
2019-06-10T09:13:18.088Z,24.50
2019-06-10T09:16:03.720Z,24.50
2019-06-10T09:18:20.186Z,24.50
2019-06-10T09:20:52.402Z,24.50
2019-06-10T09:23:22.579Z,24.50
2019-06-10T09:25:52.899Z,24.50
2019-06-10T09:28:19.614Z,24.60
2019-06-10T09:30:54.024Z,24.60
2019-06-10T09:33:22.370Z,24.60
2019-06-10T09:35:52.812Z,24.60
2019-06-10T09:38:22.351Z,24.60
2019-06-10T09:41:00.929Z,24.60
2019-06-10T09:43:23.737Z,24.60
2019-06-10T09:45:56.262Z,24.60
2019-06-10T09:48:23.523Z,24.60
2019-06-10T09:50:57.884Z,24.60
2019-06-10T09:53:32.790Z,24.60
2019-06-10T09:55:55.551Z,24.70
2019-06-10T09:58:24.542Z,24.70
2019-06-10T10:00:58.350Z,24.70
2019-06-10T10:03:27.350Z,24.70
2019-06-10T10:06:10.104Z,24.70
2019-06-10T10:08:26.864Z,24.70
2019-06-10T10:10:58.750Z,24.80
2019-06-10T10:13:26.712Z,24.80
2019-06-10T10:15:55.992Z,24.80
2019-06-10T10:18:24.996Z,24.80
2019-06-10T10:20:58.736Z,24.80
2019-06-10T10:23:25.743Z,24.80
2019-06-10T10:25:57.337Z,24.90
2019-06-10T10:28:26.599Z,24.90
2019-06-10T10:30:57.933Z,24.90
2019-06-10T10:33:29.931Z,24.90
2019-06-10T10:35:57.154Z,24.90
2019-06-10T10:38:26.455Z,24.90
2019-06-10T10:40:58.785Z,25.00
2019-06-10T10:43:33.247Z,24.90
2019-06-10T10:46:00.053Z,25.00
2019-06-10T10:48:27.035Z,25.00
2019-06-10T10:50:57.258Z,25.00
2019-06-10T10:53:27.654Z,25.00
2019-06-10T10:55:56.799Z,25.00
2019-06-10T10:58:25.832Z,25.00
2019-06-10T11:00:58.003Z,25.00
2019-06-10T11:03:25.293Z,25.00
2019-06-10T11:06:00.448Z,25.00
2019-06-10T11:08:24.818Z,25.00
2019-06-10T11:10:58.884Z,25.00
2019-06-10T11:13:26.500Z,25.00
2019-06-10T11:15:57.114Z,25.10
2019-06-10T11:18:26.010Z,25.10
2019-06-10T11:20:55.003Z,25.10
2019-06-10T11:23:24.008Z,25.20
2019-06-10T11:25:55.458Z,25.20
2019-06-10T11:28:23.573Z,25.20
2019-06-10T11:30:56.351Z,25.20
2019-06-10T11:33:23.049Z,25.20
2019-06-10T11:35:55.143Z,25.20
2019-06-10T11:38:23.425Z,25.20
2019-06-10T11:40:56.351Z,25.30
2019-06-10T11:43:23.046Z,25.20
2019-06-10T11:45:58.925Z,25.30
2019-06-10T11:48:23.834Z,25.30
2019-06-10T11:50:56.465Z,25.30
2019-06-10T11:53:24.310Z,25.30
2019-06-10T11:55:53.792Z,25.30
2019-06-10T11:58:25.287Z,25.30
2019-06-10T12:01:05.653Z,25.40
2019-06-10T12:03:42.770Z,25.40
2019-06-10T12:06:09.750Z,25.40
2019-06-10T12:08:38.955Z,25.50
2019-06-10T12:11:08.362Z,25.60
2019-06-10T12:13:37.448Z,25.60
2019-06-10T12:16:51.544Z,25.60
2019-06-10T12:18:36.970Z,25.60
2019-06-10T12:21:05.868Z,25.60
2019-06-10T12:23:34.958Z,25.60
2019-06-10T12:26:04.984Z,25.70
2019-06-10T12:28:34.478Z,25.70
2019-06-10T12:31:06.834Z,25.70
2019-06-10T12:33:33.898Z,25.80
2019-06-10T12:36:06.577Z,25.80
2019-06-10T12:38:33.618Z,25.80
2019-06-10T12:41:07.982Z,25.80
2019-06-10T12:43:33.567Z,25.80
2019-06-10T12:46:03.385Z,25.90
2019-06-10T12:48:34.092Z,25.90
2019-06-10T12:51:06.351Z,25.90
2019-06-10T12:53:33.818Z,25.90
2019-06-10T12:56:08.014Z,25.90
2019-06-10T12:58:33.705Z,26.00
2019-06-10T13:01:05.584Z,26.00
2019-06-10T13:03:33.967Z,26.00
2019-06-10T13:06:07.316Z,26.10
2019-06-10T13:08:35.777Z,26.10
2019-06-10T13:11:05.384Z,26.20
2019-06-10T13:13:34.684Z,26.20
2019-06-10T13:16:06.794Z,26.20
2019-06-10T13:18:34.308Z,26.20
2019-06-10T13:21:10.015Z,26.30
2019-06-10T13:23:35.391Z,26.30
2019-06-10T13:26:11.911Z,26.40
2019-06-10T13:28:37.145Z,26.40
2019-06-10T13:31:07.977Z,26.40
2019-06-10T13:33:36.461Z,26.40
2019-06-10T13:36:06.902Z,26.40
2019-06-10T13:38:35.674Z,26.50
2019-06-10T13:41:05.817Z,26.50
2019-06-10T13:43:35.297Z,26.50
2019-06-10T13:46:07.418Z,26.60
2019-06-10T13:48:37.489Z,26.60
2019-06-10T13:51:10.002Z,26.60
2019-06-10T13:53:36.802Z,26.60
2019-06-10T13:56:27.613Z,26.60
2019-06-10T13:58:36.322Z,26.60
2019-06-10T14:01:09.432Z,26.60
2019-06-10T14:03:35.748Z,26.60
2019-06-10T14:06:32.351Z,26.70
2019-06-10T14:08:38.963Z,26.70
2019-06-10T14:11:07.971Z,26.80
2019-06-10T14:13:37.258Z,26.80
2019-06-10T14:16:07.465Z,26.80
2019-06-10T14:18:36.784Z,26.90
2019-06-10T14:21:08.920Z,26.90
2019-06-10T14:23:36.290Z,27.00
2019-06-10T14:26:07.595Z,27.00
2019-06-10T14:28:40.535Z,27.00
2019-06-10T14:31:28.004Z,27.00
2019-06-10T14:33:36.565Z,27.00
2019-06-10T14:36:05.927Z,27.00
2019-06-10T14:38:36.084Z,27.00
2019-06-10T14:41:06.464Z,27.00
2019-06-10T14:43:36.015Z,27.00
2019-06-10T14:46:07.238Z,27.00
2019-06-10T14:48:36.049Z,27.00
2019-06-10T14:51:05.398Z,27.00
2019-06-10T14:53:34.649Z,27.00
2019-06-10T14:56:03.988Z,27.00
2019-06-10T14:58:33.561Z,27.00
2019-06-10T15:01:04.611Z,27.00
2019-06-10T15:03:33.081Z,27.10
2019-06-10T15:06:03.080Z,27.10
2019-06-10T15:08:32.477Z,27.10
2019-06-10T15:11:01.596Z,27.10
2019-06-10T15:13:32.605Z,27.10
2019-06-10T15:16:04.341Z,27.10
2019-06-10T15:18:32.995Z,27.10
2019-06-10T15:21:02.766Z,27.00
2019-06-10T15:23:32.457Z,27.10
2019-06-10T15:26:02.868Z,27.10
2019-06-10T15:28:33.153Z,27.10
2019-06-10T15:31:02.979Z,27.10
2019-06-10T15:33:32.787Z,27.10
2019-06-10T15:36:02.422Z,27.10
2019-06-10T15:38:32.741Z,27.10
2019-06-10T15:41:02.113Z,27.10
2019-06-10T15:43:33.098Z,27.20
2019-06-10T15:46:05.493Z,27.20
2019-06-10T15:48:34.719Z,27.20
2019-06-10T15:51:03.611Z,27.20
2019-06-10T15:53:32.896Z,27.30
2019-06-10T15:56:18.023Z,27.30
2019-06-10T15:58:32.842Z,27.30
2019-06-10T16:01:02.844Z,27.30
2019-06-10T16:03:33.064Z,27.40
2019-06-10T16:06:03.085Z,27.40
2019-06-10T16:08:33.119Z,27.30
2019-06-10T16:11:03.072Z,27.40
2019-06-10T16:13:32.681Z,27.40
2019-06-10T16:16:03.621Z,27.40
2019-06-10T16:18:33.020Z,27.50
2019-06-10T16:21:04.256Z,27.50
2019-06-10T16:23:34.005Z,27.50
2019-06-10T16:26:07.037Z,27.40
2019-06-10T16:28:36.327Z,27.40
2019-06-10T16:31:05.320Z,27.40
2019-06-10T16:33:35.233Z,27.40
2019-06-10T16:36:04.534Z,27.40
2019-06-10T16:38:33.527Z,27.40
2019-06-10T16:41:03.490Z,27.40
2019-06-10T16:43:33.572Z,27.40
2019-06-10T16:46:04.712Z,27.40
2019-06-10T16:48:34.804Z,27.40
2019-06-10T16:51:04.996Z,27.50
2019-06-10T16:53:36.376Z,27.50
2019-06-10T16:56:07.695Z,27.50
2019-06-10T16:58:38.681Z,27.50
2019-06-10T17:01:09.163Z,27.50
2019-06-10T17:03:42.316Z,27.50
2019-06-10T17:06:13.729Z,27.60
2019-06-10T17:08:42.949Z,27.60
2019-06-10T17:11:12.469Z,27.00
2019-06-10T17:13:42.307Z,26.60
2019-06-10T17:16:12.714Z,26.30
2019-06-10T17:18:42.918Z,26.10
2019-06-10T17:21:13.446Z,25.90
2019-06-10T17:23:43.318Z,25.70
2019-06-10T17:26:15.090Z,25.60
2019-06-10T17:28:45.362Z,25.40
2019-06-10T17:31:14.650Z,25.40
2019-06-10T17:33:45.672Z,25.20
2019-06-10T17:36:17.144Z,25.10
2019-06-10T17:38:48.377Z,25.10
2019-06-10T17:41:17.676Z,25.00
2019-06-10T17:43:46.675Z,25.10
2019-06-10T17:46:18.742Z,25.00
2019-06-10T17:48:48.037Z,25.00
2019-06-10T17:51:17.027Z,25.20
2019-06-10T17:53:49.916Z,25.30
2019-06-10T17:56:19.011Z,25.30
2019-06-10T17:58:54.896Z,25.30
2019-06-10T18:01:22.518Z,25.10
2019-06-10T18:03:53.031Z,25.20
2019-06-10T18:06:25.933Z,25.20
2019-06-10T18:08:55.854Z,25.20
2019-06-10T18:11:26.563Z,25.10
2019-06-10T18:13:57.632Z,25.20
2019-06-10T18:16:26.625Z,25.10
2019-06-10T18:18:58.388Z,25.10
2019-06-10T18:21:28.397Z,25.00
2019-06-10T18:24:07.387Z,25.00
2019-06-10T18:26:28.953Z,25.00
2019-06-10T18:29:05.075Z,25.00
2019-06-10T18:31:29.524Z,25.00
2019-06-10T18:33:58.799Z,25.00
2019-06-10T18:36:27.979Z,24.90
2019-06-10T18:38:57.404Z,24.90
2019-06-10T18:41:27.747Z,24.90
2019-06-10T18:43:56.911Z,24.90
2019-06-10T18:46:25.905Z,24.90
2019-06-10T18:48:54.896Z,24.80
2019-06-10T18:51:27.094Z,24.80
2019-06-10T18:53:56.265Z,24.80
2019-06-10T18:56:25.258Z,24.80
2019-06-10T18:58:54.250Z,24.80
2019-06-10T19:01:23.242Z,24.70
2019-06-10T19:03:52.644Z,24.60
2019-06-10T19:06:22.920Z,24.60
2019-06-10T19:08:53.070Z,24.70
2019-06-10T19:11:22.388Z,24.50
2019-06-10T19:13:52.914Z,24.50
2019-06-10T19:16:23.496Z,24.50
2019-06-10T19:18:52.973Z,24.50
2019-06-10T19:21:22.259Z,24.50
2019-06-10T19:23:53.178Z,24.60
2019-06-10T19:26:22.391Z,24.60
2019-06-10T19:28:53.432Z,24.40
2019-06-10T19:31:21.912Z,24.50
2019-06-10T19:33:51.990Z,24.50
2019-06-10T19:36:23.127Z,24.50
2019-06-10T19:38:52.584Z,24.40
2019-06-10T19:41:24.040Z,24.20
2019-06-10T19:43:55.796Z,24.20
2019-06-10T19:46:25.188Z,24.10
2019-06-10T19:49:02.636Z,24.00
2019-06-10T19:51:26.202Z,23.90
2019-06-10T19:53:55.774Z,23.80
2019-06-10T19:56:26.474Z,23.70
2019-06-10T19:58:55.274Z,23.60
2019-06-10T20:01:24.268Z,23.70
2019-06-10T20:03:54.490Z,23.70
2019-06-10T20:06:25.216Z,23.70
2019-06-10T20:08:58.954Z,23.40
2019-06-10T20:11:27.924Z,23.30
2019-06-10T20:13:57.121Z,23.30
2019-06-10T20:16:26.520Z,23.40
2019-06-10T20:18:55.835Z,23.50
2019-06-10T20:21:24.814Z,23.60
2019-06-10T20:23:54.120Z,23.60
2019-06-10T20:26:23.519Z,23.70
2019-06-10T20:28:54.874Z,23.70
2019-06-10T20:31:23.046Z,23.60
2019-06-10T20:33:52.551Z,23.70
2019-06-10T20:36:26.669Z,23.60
2019-06-10T20:38:53.493Z,23.60
2019-06-10T20:41:22.914Z,23.60
2019-06-10T20:43:55.170Z,23.70
2019-06-10T20:46:23.491Z,23.80
2019-06-10T20:48:54.580Z,23.70
2019-06-10T20:51:26.876Z,23.70
2019-06-10T20:53:54.320Z,23.70
2019-06-10T20:56:23.531Z,23.70
2019-06-10T20:58:52.662Z,23.70
2019-06-10T21:01:25.124Z,23.70
2019-06-10T21:03:54.169Z,23.70
2019-06-10T21:06:23.586Z,23.70
2019-06-10T21:08:54.838Z,23.70
2019-06-10T21:11:23.722Z,23.70
2019-06-10T21:13:55.511Z,23.70
2019-06-10T21:16:23.247Z,23.70
2019-06-10T21:18:55.425Z,23.60
2019-06-10T21:21:24.101Z,23.60
2019-06-10T21:23:54.087Z,23.70
2019-06-10T21:26:23.759Z,23.60
2019-06-10T21:28:55.033Z,23.60
2019-06-10T21:31:24.998Z,23.60
2019-06-10T21:33:55.653Z,23.60
2019-06-10T21:36:25.328Z,23.60
2019-06-10T21:38:55.653Z,23.60
2019-06-10T21:41:24.853Z,23.60
2019-06-10T21:43:59.137Z,23.70
2019-06-10T21:46:24.372Z,23.80
2019-06-10T21:48:55.679Z,23.90
2019-06-10T21:51:23.922Z,24.00
2019-06-10T21:53:53.786Z,24.10
2019-06-10T21:56:24.953Z,24.10
2019-06-10T21:58:55.676Z,24.20
2019-06-10T22:01:25.408Z,24.30
2019-06-10T22:04:00.472Z,24.30
2019-06-10T22:06:24.919Z,24.30
2019-06-10T22:08:56.379Z,24.40
2019-06-10T22:11:24.443Z,24.40
2019-06-10T22:13:56.123Z,24.50
2019-06-10T22:16:23.965Z,24.50
2019-06-10T22:18:54.970Z,24.50
2019-06-10T22:21:24.099Z,24.50
2019-06-10T22:23:55.654Z,24.50
2019-06-10T22:26:24.552Z,24.50
2019-06-10T22:28:55.814Z,24.60
2019-06-10T22:31:26.467Z,24.50
2019-06-10T22:33:56.252Z,24.60
2019-06-10T22:36:25.126Z,24.60
2019-06-10T22:38:57.188Z,24.60
2019-06-10T22:41:24.650Z,24.60
2019-06-10T22:43:55.831Z,24.60
2019-06-10T22:46:24.179Z,24.60
2019-06-10T22:48:53.524Z,24.60
2019-06-10T22:51:22.965Z,24.70
2019-06-10T22:53:54.864Z,24.70
2019-06-10T22:56:23.519Z,24.60
2019-06-10T22:58:54.327Z,24.70
2019-06-10T23:01:33.811Z,24.70
2019-06-10T23:03:54.143Z,24.70
2019-06-10T23:06:23.506Z,24.70
2019-06-10T23:08:54.700Z,24.70
2019-06-10T23:11:24.052Z,24.70
2019-06-10T23:13:54.707Z,24.80
2019-06-10T23:16:23.761Z,24.80
2019-06-10T23:18:54.030Z,24.80
2019-06-10T23:21:23.284Z,24.80
2019-06-10T23:23:53.984Z,24.80
2019-06-10T23:26:22.806Z,24.80
2019-06-10T23:28:54.041Z,24.80
2019-06-10T23:31:23.079Z,24.80
2019-06-10T23:33:56.319Z,24.80
2019-06-10T23:36:24.307Z,24.80
2019-06-10T23:38:54.855Z,24.80
2019-06-10T23:41:24.154Z,24.80
2019-06-10T23:43:53.131Z,24.80
2019-06-10T23:46:22.753Z,24.80
2019-06-10T23:48:53.411Z,24.80
2019-06-10T23:51:22.873Z,24.80
2019-06-10T23:53:56.682Z,24.70
2019-06-10T23:56:23.932Z,24.80
2019-06-10T23:58:54.396Z,24.80
